Flight Track Log - Related Links

Times and Time Zones

All times are in EDT time to prevent confusion due to time zone crossing. See the EJM916 flight status page for this flight to view local times or setup timezone preferences in your user account.


Time Position Orientation Groundspeed Altitude Reporting Facility
EDT Latitude Longitude Course Direction KTS MPH feet Rate Location/Type
Sat 05:17:55 PM 34.9536 -78.9269 302° West 203 234 3,200  Level Washington Center
Sat 05:18:52 PM 34.9494 -79.0003 266° West 227 261 6,800 3,407 Climbing Washington Center
Sat 05:19:53 PM 34.9508 -79.0964 271° West 259 298 9,900 2,500 Climbing Washington Center
Sat 05:20:52 PM 34.9792 -79.1992 289° West 288 331 11,800 2,529 Climbing Washington Center
Sat 05:21:54 PM 35.0692 -79.2539 334° Northwest 305 351 15,000 3,025 Climbing Washington Center
Sat 05:22:53 PM 35.1658 -79.3067 336° Northwest 351 404 17,900 3,000 Climbing Washington Center
Sat 05:23:00 PM 35.3825 -79.6518 302° West  Level Estimated
Sat 05:23:52 PM 35.2689 -79.3444 343° North 365 420 20,900  Level Washington Center
Sat 05:24:52 PM 35.3881 -79.4008 339° North 404 465 23,100 2,033 Climbing Washington Center
Sat 05:25:53 PM 35.4947 -79.4594 336° Northwest 410 472 25,000 1,948 Climbing Washington Center
Sat 05:28:06 PM 35.7417 -79.5819 338° Northwest 444 511 29,400 1,772 Climbing Atlanta Center
Sat 05:29:06 PM 35.8292 -79.6975 313° West 420 483 30,700 800 Climbing Atlanta Center
Sat 05:30:06 PM 35.8536 -79.8575 281° West 425 489 31,000 400 Climbing Atlanta Center
Sat 05:31:06 PM 35.8506 -80.0139 269° West 444 511 31,500 1,000 Climbing Atlanta Center
Sat 05:32:06 PM 35.8550 -80.1572 272° West 459 528 33,000 1,250 Climbing Atlanta Center
Sat 05:33:06 PM 35.8894 -80.3247 284° West 459 528 34,000 850 Climbing Atlanta Center
Sat 05:34:06 PM 35.9458 -80.4683 296° West 456 525 34,700 500 Climbing Atlanta Center
Sat 05:35:06 PM 36.0019 -80.6097 296° West 456 525 35,000 650 Climbing Atlanta Center
Sat 05:36:06 PM 36.0581 -80.7536 296° West 464 534 36,000 1,050 Climbing Atlanta Center
Sat 05:37:06 PM 36.1142 -80.8978 296° West 464 534 37,100 1,000 Climbing Atlanta Center
Sat 05:38:06 PM 36.1675 -81.0397 295° West 458 527 38,000 450 Climbing Atlanta Center
Sat 05:39:06 PM 36.2211 -81.1794 295° West 458 527 38,000  Level Atlanta Center
Sat 05:40:06 PM 36.3011 -81.3028 309° West 453 521 38,000 -150 Level Atlanta Center
Sat 05:41:06 PM 36.3889 -81.4158 314° West 458 527 37,700 -700 Descending Atlanta Center
Sat 05:42:06 PM 36.4811 -81.5317 315° West 458 527 36,600 -1,250 Descending Atlanta Center
Sat 05:43:06 PM 36.5689 -81.6453 314° West 458 527 35,200 -1,453 Descending Atlanta Center
Sat 05:45:16 PM 36.7656 -81.8942 315° West 477 549 32,000 -1,476 Descending Indianapolis Center
Sat 05:46:17 PM 36.8544 -82.0225 311° West 485 558 30,500 -976 Descending Indianapolis Center
Sat 05:47:19 PM 36.9008 -82.1822 290° West 488 562 30,000 -244 Descending Indianapolis Center
Sat 05:48:20 PM 36.9458 -82.3375 290° West 478 550 30,000  Level Indianapolis Center
Sat 05:49:21 PM 36.9897 -82.4914 290° West 472 543 30,000  Level Indianapolis Center
Sat 05:50:22 PM 37.0400 -82.6697 290° West 470 541 30,000  Level Indianapolis Center
Sat 05:51:24 PM 37.0836 -82.8208 290° West 470 541 30,000  Level Indianapolis Center
Sat 05:52:25 PM 37.1258 -82.9733 289° West 471 542 30,000  Level Indianapolis Center
Sat 05:53:26 PM 37.1667 -83.1250 289° West 465 535 30,000  Level Indianapolis Center
Sat 05:54:28 PM 37.2086 -83.2758 289° West 461 531 30,000  Level Indianapolis Center
Sat 05:55:29 PM 37.2497 -83.4286 289° West 463 533 30,000  Level Indianapolis Center
Sat 05:56:30 PM 37.2992 -83.6072 289° West 463 533 30,000  Level Indianapolis Center
Sat 05:57:32 PM 37.3411 -83.7603 289° West 464 534 30,000 -732 Level Indianapolis Center
Sat 05:58:33 PM 37.3808 -83.9136 288° West 462 532 28,500 -2,164 Descending Indianapolis Center
Sat 05:59:34 PM 37.4214 -84.0656 289° West 459 528 25,600 -2,780 Descending Indianapolis Center
Sat 06:00:36 PM 37.4611 -84.2128 289° West 448 516 22,800 -2,780 Descending Indianapolis Center
Sat 06:01:37 PM 37.4975 -84.3506 288° West 416 479 19,900 -2,705 Descending Indianapolis Center
Sat 06:02:38 PM 37.5322 -84.4839 288° West 400 460 17,300 -2,634 Descending Indianapolis Center
Sat 06:03:40 PM 37.5647 -84.6106 288° West 384 442 14,500 -2,390 Descending Indianapolis Center
Sat 06:04:41 PM 37.6003 -84.7439 289° West 349 402 12,400 -1,721 Descending Indianapolis Center
Sat 06:05:42 PM 37.6289 -84.8508 289° West 322 371 11,000 -1,171 Descending Indianapolis Center
Sat 06:06:44 PM 37.6542 -84.9486 288° West 295 339 10,000 -488 Descending Indianapolis Center
Sat 06:07:45 PM 37.7086 -85.0294 310° West 301 346 10,000  Level Indianapolis Center
Sat 06:08:47 PM 37.7644 -85.1067 312° West 299 344 10,000 -49 Level Indianapolis Center
Sat 06:09:48 PM 37.8194 -85.1844 312° West 296 341 9,900 -639 Descending Indianapolis Center
Sat 06:10:49 PM 37.8822 -85.2675 314° West 296 341 8,700 -1,073 Descending Indianapolis Center
Sat 06:11:51 PM 37.9361 -85.3417 313° West 288 331 7,700 -976 Descending Indianapolis Center
Sat 06:12:52 PM 37.9881 -85.4153 312° West 282 325 6,700 -984 Descending Indianapolis Center
Sat 06:13:53 PM 38.0389 -85.4889 311° West 278 320 5,700 -976 Descending Indianapolis Center
Sat 06:14:55 PM 38.0914 -85.5594 313° West 275 316 4,700 -780 Descending Indianapolis Center
Sat 06:15:56 PM 38.1553 -85.6067 330° Northwest 277 319 4,100 -341 Descending Indianapolis Center
Sat 06:16:58 PM 38.2261 -85.6314 345° North 268 308 4,000 -49 Descending Indianapolis Center
Sat 06:17:59 PM 38.2872 -85.6539 344° North 250 288 4,000 -295 Level Indianapolis Center
Sat 06:19:00 PM 38.3269 -85.6947 321° Northwest 230 265 3,400 -488 Descending Indianapolis Center
Sat 06:20:02 PM 38.3089 -85.7511 248° West 194 223 3,000 -439 Descending Indianapolis Center
Sat 06:21:03 PM 38.2589 -85.7694 196° South 180 207 2,500 -492 Descending Indianapolis Center

Login

Don't have an account? Register now (free) for customized features, flight alerts, and more!